createdAt,value
2018-08-23T00:01:24.534Z,6.20
2018-08-23T00:03:53.456Z,4.63
2018-08-23T00:06:22.337Z,4.77
2018-08-23T00:08:51.808Z,4.83
2018-08-23T00:11:26.679Z,6.20
2018-08-23T00:13:55.562Z,5.77
2018-08-23T00:16:30.374Z,7.10
2018-08-23T00:18:59.255Z,4.40
2018-08-23T00:21:28.687Z,4.97
2018-08-23T00:24:11.853Z,4.47
2018-08-23T00:26:50.582Z,5.27
2018-08-23T00:29:24.647Z,6.20
2018-08-23T00:31:57.198Z,4.93
2018-08-23T00:34:28.623Z,4.40
2018-08-23T00:36:58.025Z,8.97
2018-08-23T00:39:27.735Z,4.70
2018-08-23T00:42:01.868Z,4.93
2018-08-23T00:45:03.427Z,6.17
2018-08-23T00:47:33.542Z,4.00
2018-08-23T00:50:02.375Z,4.70
2018-08-23T00:52:44.188Z,4.67
2018-08-23T00:55:30.268Z,4.50
2018-08-23T00:57:59.216Z,8.17
2018-08-23T01:00:29.023Z,5.00
2018-08-23T01:03:01.508Z,4.50
2018-08-23T01:05:36.103Z,4.17
2018-08-23T01:08:05.731Z,4.53
2018-08-23T01:10:34.639Z,4.23
2018-08-23T01:13:04.135Z,5.07
2018-08-23T01:15:33.475Z,4.60
2018-08-23T01:18:13.690Z,5.60
2018-08-23T01:20:43.346Z,6.23
2018-08-23T01:23:12.197Z,4.60
2018-08-23T01:25:42.289Z,4.93
2018-08-23T01:28:11.791Z,4.00
2018-08-23T01:30:41.119Z,3.80
2018-08-23T01:33:14.683Z,4.20
2018-08-23T01:35:44.551Z,4.40
2018-08-23T01:38:14.051Z,4.20
2018-08-23T01:40:43.039Z,7.23
2018-08-23T01:43:11.943Z,4.30
2018-08-23T01:45:40.799Z,4.70
2018-08-23T01:48:10.551Z,4.20
2018-08-23T01:50:39.481Z,4.37
2018-08-23T01:53:08.347Z,4.57
2018-08-23T01:55:37.225Z,4.50
2018-08-23T01:58:06.376Z,4.87
2018-08-23T02:00:36.316Z,10.73
2018-08-23T02:03:05.231Z,4.40
2018-08-23T02:05:34.161Z,7.33
2018-08-23T02:08:02.990Z,4.83
2018-08-23T02:10:31.866Z,5.83
2018-08-23T02:13:00.735Z,5.10
2018-08-23T02:16:03.471Z,5.37
2018-08-23T02:18:33.388Z,6.10
2018-08-23T02:21:11.028Z,5.90
2018-08-23T02:23:45.050Z,5.03
2018-08-23T02:26:14.432Z,6.37
2018-08-23T02:28:44.926Z,5.20
2018-08-23T02:31:13.738Z,5.47
2018-08-23T02:33:42.663Z,5.43
2018-08-23T02:36:18.459Z,4.90
2018-08-23T02:38:51.971Z,4.70
2018-08-23T02:41:20.889Z,4.50
2018-08-23T02:43:49.756Z,7.30
2018-08-23T02:46:18.574Z,4.77
2018-08-23T02:48:47.451Z,4.50
2018-08-23T02:51:16.287Z,4.30
2018-08-23T02:53:48.523Z,5.10
2018-08-23T02:56:21.231Z,7.83
2018-08-23T02:58:58.920Z,5.43
2018-08-23T03:01:30.471Z,5.53
2018-08-23T03:04:06.611Z,4.60
2018-08-23T03:06:40.656Z,5.13
2018-08-23T03:09:09.561Z,6.60
2018-08-23T03:11:38.439Z,4.90
2018-08-23T03:14:07.504Z,5.50
2018-08-23T03:16:48.679Z,5.50
2018-08-23T03:19:17.553Z,5.20
2018-08-23T03:21:46.695Z,6.80
2018-08-23T03:24:20.151Z,4.73
2018-08-23T03:26:49.150Z,6.27
2018-08-23T03:29:18.016Z,8.23
2018-08-23T03:31:46.899Z,6.60
2018-08-23T03:34:15.729Z,5.93
2018-08-23T03:36:44.554Z,7.07
2018-08-23T03:39:13.446Z,6.10
2018-08-23T03:41:42.258Z,6.10
2018-08-23T03:44:22.587Z,5.10
2018-08-23T03:46:54.417Z,5.70
2018-08-23T03:49:33.689Z,5.20
2018-08-23T03:52:02.555Z,6.23
2018-08-23T03:54:31.604Z,5.43
2018-08-23T03:57:12.919Z,6.03
2018-08-23T03:59:44.943Z,5.60
2018-08-23T04:02:14.855Z,5.30
2018-08-23T04:04:44.925Z,6.20
2018-08-23T04:07:13.739Z,5.90
2018-08-23T04:09:43.064Z,5.60
2018-08-23T04:12:11.895Z,6.03
2018-08-23T04:14:41.090Z,5.30
2018-08-23T04:17:11.058Z,5.27
2018-08-23T04:19:42.904Z,5.00
2018-08-23T04:22:11.810Z,8.40
2018-08-23T04:24:45.847Z,7.00
2018-08-23T04:27:14.711Z,5.87
2018-08-23T04:29:47.170Z,5.30
2018-08-23T04:32:28.864Z,5.83
2018-08-23T04:35:00.383Z,5.90
2018-08-23T04:37:30.238Z,6.37
2018-08-23T04:40:06.114Z,5.17
2018-08-23T04:42:35.458Z,4.87
2018-08-23T04:45:12.243Z,5.53
2018-08-23T04:48:09.012Z,5.90
2018-08-23T04:50:39.759Z,5.47
2018-08-23T04:53:08.624Z,5.33
2018-08-23T04:55:37.455Z,5.03
2018-08-23T04:58:06.383Z,5.77
2018-08-23T05:00:35.210Z,4.80
2018-08-23T05:03:04.093Z,6.00
2018-08-23T05:05:32.924Z,8.83
2018-08-23T05:08:01.805Z,8.03
2018-08-23T05:10:30.696Z,7.07
2018-08-23T05:12:59.570Z,5.53
2018-08-23T05:15:28.390Z,6.87
2018-08-23T05:17:57.246Z,6.33
2018-08-23T05:20:26.079Z,5.37
2018-08-23T05:23:01.970Z,7.67
2018-08-23T05:25:30.752Z,6.30
2018-08-23T05:28:14.855Z,6.13
2018-08-23T05:30:44.799Z,5.67
2018-08-23T05:33:18.592Z,7.07
2018-08-23T05:35:47.490Z,7.37
2018-08-23T05:38:17.028Z,6.40
2018-08-23T05:40:48.448Z,6.27
2018-08-23T05:43:17.328Z,6.20
2018-08-23T05:45:54.511Z,5.87
2018-08-23T05:48:31.719Z,6.17
2018-08-23T05:51:05.576Z,7.03
2018-08-23T05:53:38.576Z,7.63
2018-08-23T05:56:07.791Z,7.73
2018-08-23T05:58:36.655Z,6.63
2018-08-23T06:01:05.533Z,7.63
2018-08-23T06:03:34.569Z,6.97
2018-08-23T06:06:03.391Z,6.30
2018-08-23T06:08:32.226Z,6.23
2018-08-23T06:11:06.011Z,6.57
2018-08-23T06:13:34.935Z,7.47
2018-08-23T06:16:04.183Z,8.30
2018-08-23T06:18:33.049Z,7.20
2018-08-23T06:21:01.972Z,7.03
2018-08-23T06:24:02.071Z,7.23
2018-08-23T06:26:42.168Z,6.63
2018-08-23T06:29:13.887Z,6.90
2018-08-23T06:31:50.207Z,6.00
2018-08-23T06:34:19.163Z,6.90
2018-08-23T06:36:48.096Z,6.07
2018-08-23T06:39:16.951Z,6.17
2018-08-23T06:41:45.768Z,6.90
2018-08-23T06:44:14.610Z,7.30
2018-08-23T06:46:43.426Z,5.77
2018-08-23T06:49:12.347Z,5.50
2018-08-23T06:51:41.184Z,6.00
2018-08-23T06:54:10.118Z,6.03
2018-08-23T06:56:39.040Z,5.43
2018-08-23T06:59:08.942Z,5.00
2018-08-23T07:01:43.119Z,5.23
2018-08-23T07:04:14.510Z,5.33
2018-08-23T07:06:43.455Z,5.70
2018-08-23T07:09:17.475Z,5.80
2018-08-23T07:11:46.721Z,5.30
2018-08-23T07:14:17.827Z,4.93
2018-08-23T07:16:49.163Z,5.10
2018-08-23T07:19:30.182Z,4.80
2018-08-23T07:22:00.710Z,4.43
2018-08-23T07:24:48.171Z,5.10
2018-08-23T07:27:18.177Z,4.70
2018-08-23T07:29:49.306Z,5.70
2018-08-23T07:32:19.156Z,5.37
2018-08-23T07:35:05.062Z,7.60
2018-08-23T07:37:35.911Z,4.57
2018-08-23T07:40:10.377Z,4.67
2018-08-23T07:42:40.328Z,6.37
2018-08-23T07:45:09.892Z,6.03
2018-08-23T07:47:42.229Z,5.67
2018-08-23T07:50:11.125Z,4.97
2018-08-23T07:52:43.950Z,7.00
2018-08-23T07:55:12.912Z,4.80
2018-08-23T07:57:42.247Z,5.07
2018-08-23T08:00:22.004Z,7.50
2018-08-23T08:02:50.868Z,4.87
2018-08-23T08:05:19.676Z,6.20
2018-08-23T08:07:49.479Z,8.03
2018-08-23T08:10:20.863Z,6.80
2018-08-23T08:12:49.700Z,8.03
2018-08-23T08:15:18.919Z,7.83
2018-08-23T08:17:47.590Z,9.83
2018-08-23T08:20:16.436Z,5.13
2018-08-23T08:22:45.303Z,4.97
2018-08-23T08:25:21.087Z,4.80
2018-08-23T08:27:50.738Z,5.53
2018-08-23T08:30:29.398Z,5.13
2018-08-23T08:32:58.300Z,4.33
2018-08-23T08:35:27.170Z,4.63
2018-08-23T08:37:56.071Z,4.90
2018-08-23T08:40:26.123Z,4.63
2018-08-23T08:42:55.080Z,4.97
2018-08-23T08:45:26.835Z,4.03
2018-08-23T08:48:05.476Z,4.30
2018-08-23T08:50:38.796Z,4.27
2018-08-23T08:53:07.608Z,4.60
2018-08-23T08:55:36.458Z,4.23
2018-08-23T08:58:06.481Z,6.47
2018-08-23T09:00:50.571Z,4.80
2018-08-23T09:03:20.665Z,4.40
2018-08-23T09:05:49.503Z,4.10
2018-08-23T09:08:18.392Z,4.70
2018-08-23T09:10:47.231Z,4.27
2018-08-23T09:13:16.042Z,4.37
2018-08-23T09:15:49.602Z,4.07
2018-08-23T09:18:24.317Z,4.90
2018-08-23T09:20:55.872Z,7.63
2018-08-23T09:23:25.346Z,4.10
2018-08-23T09:25:57.586Z,3.87
2018-08-23T09:28:26.611Z,6.00
2018-08-23T09:30:55.560Z,3.57
2018-08-23T09:33:28.631Z,4.23
2018-08-23T09:35:57.501Z,3.83
2018-08-23T09:38:26.391Z,4.13
2018-08-23T09:40:55.308Z,4.57
2018-08-23T09:43:24.140Z,3.83
2018-08-23T09:45:54.431Z,4.37
2018-08-23T09:48:23.444Z,6.93
2018-08-23T09:50:52.387Z,4.47
2018-08-23T09:53:24.468Z,5.47
2018-08-23T09:55:54.204Z,4.93
2018-08-23T09:58:28.302Z,7.00
2018-08-23T10:01:02.315Z,5.87
2018-08-23T10:03:36.381Z,4.70
2018-08-23T10:06:10.387Z,4.90
2018-08-23T10:08:44.370Z,4.67
2018-08-23T10:11:19.685Z,4.90
2018-08-23T10:13:53.795Z,4.77
2018-08-23T10:16:27.807Z,5.50
2018-08-23T10:18:59.618Z,5.00
2018-08-23T10:21:33.629Z,5.30
2018-08-23T10:24:32.243Z,4.43
2018-08-23T10:27:01.233Z,4.33
2018-08-23T10:29:30.078Z,4.67
2018-08-23T10:31:58.964Z,6.13
2018-08-23T10:34:27.795Z,5.60
2018-08-23T10:36:56.670Z,5.73
2018-08-23T10:39:25.507Z,4.97
2018-08-23T10:41:54.367Z,4.47
2018-08-23T10:44:23.324Z,4.00
2018-08-23T10:46:56.514Z,3.80
2018-08-23T10:49:26.123Z,4.47
2018-08-23T10:51:54.983Z,5.20
2018-08-23T10:54:23.819Z,4.27
2018-08-23T10:56:52.692Z,5.03
2018-08-23T10:59:21.528Z,4.43
2018-08-23T11:01:50.403Z,4.70
2018-08-23T11:04:19.297Z,4.70
2018-08-23T11:06:53.459Z,6.13
2018-08-23T11:09:27.507Z,5.33
2018-08-23T11:11:56.380Z,4.07
2018-08-23T11:14:30.463Z,5.23
2018-08-23T11:17:04.856Z,3.83
2018-08-23T11:19:38.710Z,7.50
2018-08-23T11:22:07.743Z,4.00
2018-08-23T11:24:36.603Z,4.00
2018-08-23T11:27:08.769Z,3.83
2018-08-23T11:29:37.667Z,4.97
2018-08-23T11:32:06.584Z,3.80
2018-08-23T11:34:35.500Z,4.03
2018-08-23T11:37:04.357Z,3.57
2018-08-23T11:39:33.192Z,3.73
2018-08-23T11:42:02.110Z,4.67
2018-08-23T11:44:30.958Z,4.93
2018-08-23T11:46:59.832Z,3.77
2018-08-23T11:49:28.688Z,4.60
2018-08-23T11:51:57.542Z,3.43
2018-08-23T11:54:26.377Z,4.83
2018-08-23T11:56:55.268Z,4.53
2018-08-23T11:59:24.120Z,3.47
2018-08-23T12:01:52.996Z,4.07
2018-08-23T12:04:21.836Z,3.97
2018-08-23T12:06:54.865Z,3.40
2018-08-23T12:09:27.875Z,3.20
2018-08-23T12:11:56.986Z,3.00
2018-08-23T12:14:26.214Z,5.10
2018-08-23T12:16:55.136Z,3.97
2018-08-23T12:19:23.998Z,4.47
2018-08-23T12:21:52.986Z,3.40
2018-08-23T12:24:21.819Z,3.13
2018-08-23T12:26:50.661Z,3.40
2018-08-23T12:29:19.538Z,2.80
2018-08-23T12:31:48.423Z,3.53
2018-08-23T12:34:28.402Z,3.00
2018-08-23T12:37:02.447Z,2.80
2018-08-23T12:39:36.497Z,3.13
2018-08-23T12:43:10.939Z,3.20
2018-08-23T12:45:41.151Z,2.90
2018-08-23T12:48:11.331Z,2.80
2018-08-23T12:50:40.727Z,3.40
2018-08-23T12:53:09.670Z,2.40
2018-08-23T12:55:38.959Z,2.70
2018-08-23T12:58:09.636Z,2.53
2018-08-23T13:00:39.107Z,2.73
2018-08-23T13:03:08.257Z,2.70
2018-08-23T13:05:37.581Z,2.80
2018-08-23T13:08:06.690Z,3.77
2018-08-23T13:10:36.225Z,3.92
2018-08-23T13:13:05.195Z,3.12
2018-08-23T13:15:34.109Z,2.75
2018-08-23T13:18:03.440Z,3.00
2018-08-23T13:20:36.073Z,2.90
2018-08-23T13:23:04.900Z,2.90
2018-08-23T13:25:33.808Z,3.30
2018-08-23T13:28:02.640Z,3.27
2018-08-23T13:30:31.508Z,2.92
2018-08-23T13:33:00.429Z,2.92
2018-08-23T13:35:29.375Z,2.80
2018-08-23T13:37:58.202Z,2.83
2018-08-23T13:40:27.067Z,3.05
2018-08-23T13:42:55.977Z,2.67
2018-08-23T13:45:24.905Z,3.17
2018-08-23T13:47:53.831Z,3.02
2018-08-23T13:50:22.708Z,2.98
2018-08-23T13:52:51.548Z,3.02
2018-08-23T13:55:20.443Z,2.87
2018-08-23T13:57:49.449Z,2.90
2018-08-23T14:00:23.469Z,3.12
2018-08-23T14:02:52.450Z,3.08
2018-08-23T14:05:21.388Z,2.62
2018-08-23T14:07:50.280Z,2.65
2018-08-23T14:10:19.203Z,3.00
2018-08-23T14:12:48.088Z,2.92
2018-08-23T14:15:22.244Z,3.05
2018-08-23T14:17:51.249Z,3.10
2018-08-23T14:20:20.144Z,3.20
2018-08-23T14:22:49.027Z,2.92
2018-08-23T14:25:18.068Z,3.67
2018-08-23T14:27:46.963Z,2.77
2018-08-23T14:30:15.843Z,3.15
2018-08-23T14:32:44.824Z,6.03
2018-08-23T14:35:13.846Z,4.35
2018-08-23T14:37:42.747Z,3.12
2018-08-23T14:40:11.697Z,3.42
2018-08-23T14:42:40.559Z,3.25
2018-08-23T14:45:09.496Z,3.37
2018-08-23T14:47:43.635Z,3.20
2018-08-23T14:50:12.555Z,3.87
2018-08-23T14:52:41.456Z,4.47
2018-08-23T14:55:10.465Z,2.87
2018-08-23T14:57:39.397Z,4.15
2018-08-23T15:00:08.383Z,3.40
2018-08-23T15:02:37.224Z,2.80
2018-08-23T15:05:06.499Z,3.02
2018-08-23T15:07:35.348Z,3.65
2018-08-23T15:10:04.439Z,3.35
2018-08-23T15:12:33.266Z,2.80
2018-08-23T15:15:02.696Z,3.40
2018-08-23T15:17:31.856Z,4.00
2018-08-23T15:20:00.764Z,3.72
2018-08-23T15:22:29.610Z,4.12
2018-08-23T15:24:58.496Z,3.20
2018-08-23T15:27:31.496Z,2.90
2018-08-23T15:30:00.470Z,3.17
2018-08-23T15:32:29.314Z,3.42
2018-08-23T15:34:59.240Z,3.35
2018-08-23T15:37:28.107Z,3.33
2018-08-23T15:39:56.958Z,2.98
2018-08-23T15:42:25.880Z,3.75
2018-08-23T15:44:54.767Z,3.80
2018-08-23T15:47:23.782Z,3.02
2018-08-23T15:49:52.615Z,3.72
2018-08-23T15:52:21.532Z,3.45
2018-08-23T15:54:50.383Z,3.72
2018-08-23T15:57:19.278Z,3.67
2018-08-23T15:59:48.118Z,5.90
2018-08-23T16:02:17.012Z,3.77
2018-08-23T16:04:45.841Z,3.80
2018-08-23T16:07:14.714Z,3.47
2018-08-23T16:09:43.551Z,3.47
2018-08-23T16:12:12.431Z,3.47
2018-08-23T16:14:41.275Z,3.70
2018-08-23T16:17:15.251Z,7.10
2018-08-23T16:19:49.291Z,5.87
2018-08-23T16:22:18.154Z,7.72
2018-08-23T16:24:46.988Z,7.58
2018-08-23T16:27:15.851Z,6.37
2018-08-23T16:29:49.976Z,6.20
2018-08-23T16:32:24.263Z,5.20
2018-08-23T16:34:53.486Z,7.78
2018-08-23T16:37:22.472Z,6.78
2018-08-23T16:39:51.279Z,4.87
2018-08-23T16:42:20.164Z,4.03
2018-08-23T16:44:49.187Z,4.00
2018-08-23T16:47:19.464Z,4.12
2018-08-23T16:49:48.295Z,4.05
2018-08-23T16:52:17.159Z,4.33
2018-08-23T16:54:46.011Z,4.03
2018-08-23T16:57:15.032Z,4.30
2018-08-23T16:59:43.856Z,3.27
2018-08-23T17:02:12.719Z,3.30
2018-08-23T17:04:46.620Z,2.97
2018-08-23T17:07:16.711Z,4.83
2018-08-23T17:09:45.735Z,3.07
2018-08-23T17:12:14.615Z,2.83
2018-08-23T17:14:43.494Z,2.87
2018-08-23T17:17:17.407Z,2.80
2018-08-23T17:19:46.348Z,2.63
2018-08-23T17:22:15.204Z,3.33
2018-08-23T17:24:44.118Z,3.97
2018-08-23T17:27:12.924Z,5.50
2018-08-23T17:29:41.769Z,2.57
2018-08-23T17:32:10.667Z,2.73
2018-08-23T17:34:39.517Z,2.73
2018-08-23T17:37:08.411Z,3.33
2018-08-23T17:39:37.281Z,2.60
2018-08-23T17:42:06.175Z,4.57
2018-08-23T17:44:35.268Z,2.67
2018-08-23T17:47:04.119Z,2.33
2018-08-23T17:49:33.226Z,2.67
2018-08-23T17:52:02.359Z,2.73
2018-08-23T17:54:31.204Z,3.97
2018-08-23T17:57:00.147Z,3.87
2018-08-23T17:59:28.999Z,3.10
2018-08-23T18:01:57.857Z,2.70
2018-08-23T18:04:26.711Z,2.80
2018-08-23T18:06:55.546Z,2.60
2018-08-23T18:09:24.462Z,2.87
2018-08-23T18:11:53.298Z,2.60
2018-08-23T18:14:22.255Z,2.50
2018-08-23T18:16:56.184Z,2.93
2018-08-23T18:19:25.053Z,2.47
2018-08-23T18:21:53.995Z,2.97
2018-08-23T18:24:22.904Z,2.93
2018-08-23T18:26:51.775Z,2.97
2018-08-23T18:29:20.643Z,2.47
2018-08-23T18:31:49.494Z,2.80
2018-08-23T18:34:18.359Z,2.60
2018-08-23T18:36:47.211Z,3.60
2018-08-23T18:39:16.083Z,3.53
2018-08-23T18:41:44.902Z,2.63
2018-08-23T18:44:13.867Z,3.90
2018-08-23T18:46:42.708Z,2.97
2018-08-23T18:49:11.575Z,2.40
2018-08-23T18:51:40.432Z,3.03
2018-08-23T18:54:09.348Z,3.20
2018-08-23T18:56:38.238Z,3.37
2018-08-23T18:59:07.119Z,2.90
2018-08-23T19:01:36.156Z,3.33
2018-08-23T19:04:05.026Z,2.97
2018-08-23T19:06:35.299Z,3.43
2018-08-23T19:09:06.502Z,3.40
2018-08-23T19:11:35.374Z,3.50
2018-08-23T19:14:04.251Z,3.90
2018-08-23T19:16:38.257Z,3.67
2018-08-23T19:19:07.298Z,3.63
2018-08-23T19:21:36.128Z,4.03
2018-08-23T19:24:05.002Z,3.63
2018-08-23T19:26:33.828Z,4.63
2018-08-23T19:29:02.719Z,4.13
2018-08-23T19:31:31.601Z,3.70
2018-08-23T19:34:00.460Z,4.13
2018-08-23T19:36:29.291Z,3.97
2018-08-23T19:38:58.182Z,3.97
2018-08-23T19:41:27.015Z,4.00
2018-08-23T19:43:55.975Z,3.73
2018-08-23T19:46:30.166Z,4.40
2018-08-23T19:49:04.204Z,4.40
2018-08-23T19:51:33.048Z,5.00
2018-08-23T19:54:01.912Z,3.87
2018-08-23T19:56:30.744Z,5.27
2018-08-23T19:58:59.649Z,4.70
2018-08-23T20:01:28.488Z,6.07
2018-08-23T20:03:57.396Z,3.83
2018-08-23T20:06:26.322Z,3.83
2018-08-23T20:08:55.165Z,4.17
2018-08-23T20:11:24.013Z,4.50
2018-08-23T20:13:52.892Z,3.93
2018-08-23T20:16:21.746Z,3.93
2018-08-23T20:18:50.648Z,4.47
2018-08-23T20:21:19.487Z,4.00
2018-08-23T20:23:48.347Z,5.77
2018-08-23T20:26:17.244Z,4.90
2018-08-23T20:28:46.119Z,4.27
2018-08-23T20:31:14.966Z,4.07
2018-08-23T20:33:43.826Z,3.53
2018-08-23T20:36:12.695Z,4.23
2018-08-23T20:38:41.580Z,4.20
2018-08-23T20:41:10.415Z,4.83
2018-08-23T20:43:40.848Z,4.27
2018-08-23T20:46:09.716Z,4.60
2018-08-23T20:48:39.362Z,4.10
2018-08-23T20:51:08.220Z,4.33
2018-08-23T20:53:37.062Z,4.60
2018-08-23T20:56:06.003Z,4.60
2018-08-23T20:58:34.866Z,4.70
2018-08-23T21:01:03.744Z,5.67
2018-08-23T21:03:32.606Z,5.23
2018-08-23T21:06:01.492Z,5.20
2018-08-23T21:08:30.307Z,4.70
2018-08-23T21:10:59.181Z,4.47
2018-08-23T21:13:28.021Z,4.47
2018-08-23T21:15:56.901Z,4.60
2018-08-23T21:18:25.764Z,4.93
2018-08-23T21:20:54.646Z,4.27
2018-08-23T21:23:23.522Z,5.37
2018-08-23T21:25:52.392Z,4.73
2018-08-23T21:28:21.247Z,4.27
2018-08-23T21:30:50.119Z,4.70
2018-08-23T21:33:19.084Z,5.23
2018-08-23T21:35:48.083Z,5.13
2018-08-23T21:38:18.120Z,5.13
2018-08-23T21:40:46.979Z,5.00
2018-08-23T21:43:15.887Z,5.73
2018-08-23T21:45:44.789Z,6.77
2018-08-23T21:48:13.694Z,4.77
2018-08-23T21:50:42.553Z,5.30
2018-08-23T21:53:11.679Z,7.03
2018-08-23T21:55:40.699Z,5.67
2018-08-23T21:58:10.695Z,5.13
2018-08-23T22:00:44.996Z,5.47
2018-08-23T22:03:14.459Z,5.23
2018-08-23T22:05:43.379Z,5.87
2018-08-23T22:08:12.246Z,5.50
2018-08-23T22:10:41.111Z,6.33
2018-08-23T22:13:09.952Z,6.03
2018-08-23T22:15:43.973Z,5.43
2018-08-23T22:18:12.795Z,4.97
2018-08-23T22:20:41.664Z,5.80
2018-08-23T22:23:10.567Z,5.40
2018-08-23T22:25:39.955Z,5.07
2018-08-23T22:28:09.250Z,5.60
2018-08-23T22:30:38.910Z,5.67
2018-08-23T22:33:08.599Z,5.37
2018-08-23T22:35:37.484Z,6.07
2018-08-23T22:38:06.886Z,4.97
2018-08-23T22:40:35.970Z,5.23
2018-08-23T22:43:04.803Z,6.07
2018-08-23T22:45:33.704Z,6.83
2018-08-23T22:48:02.535Z,5.13
2018-08-23T22:50:32.419Z,4.47
2018-08-23T22:53:01.247Z,5.53
2018-08-23T22:55:30.143Z,5.53
2018-08-23T22:57:58.975Z,4.63
2018-08-23T23:00:33.051Z,4.90
2018-08-23T23:03:02.067Z,5.33
2018-08-23T23:05:30.936Z,5.70
2018-08-23T23:08:03.925Z,4.90
2018-08-23T23:10:32.826Z,5.83
2018-08-23T23:13:01.740Z,5.23
2018-08-23T23:15:30.623Z,6.23
2018-08-23T23:17:59.443Z,5.93
2018-08-23T23:20:28.340Z,6.27
2018-08-23T23:22:57.162Z,5.23
2018-08-23T23:25:26.003Z,5.20
2018-08-23T23:27:54.889Z,5.40
2018-08-23T23:30:23.722Z,5.67
2018-08-23T23:32:52.590Z,5.40
2018-08-23T23:35:21.430Z,5.17
2018-08-23T23:37:50.295Z,4.93
2018-08-23T23:40:19.144Z,5.60
2018-08-23T23:42:48.028Z,4.90
2018-08-23T23:45:16.863Z,5.27
2018-08-23T23:47:45.731Z,5.37
2018-08-23T23:50:14.579Z,5.50
2018-08-23T23:52:43.430Z,5.17
2018-08-23T23:55:12.264Z,5.50
2018-08-23T23:57:41.120Z,5.17
